Gijón Campus
latitud = 43° 31' 23''N | Longitud = 005° 37' 16''W | altura s/n = 26m
fecha-hora | temperatura | viento dirección-velocidad-rachas | humedad | presión

  • 27-09-2020 01:00:00 | 15.70°C | Este-10.00 km/h - 44.00 km/h | 98.00% | 0.00 hPa
  • 27-09-2020 00:00:00 | 17.30°C | Noroeste-30.00 km/h - 49.00 km/h | 94.00% | 0.00 hPa
  • 26-09-2020 23:00:00 | 16.10°C | Noroeste-30.00 km/h - 58.00 km/h | 99.00% | 0.00 hPa
  • 26-09-2020 22:00:00 | 17.90°C | Noroeste-21.00 km/h - 50.00 km/h | 97.00% | 0.00 hPa
  • 26-09-2020 21:00:00 | 16.60°C | Noroeste-22.00 km/h - 55.00 km/h | 98.00% | 0.00 hPa
  • 26-09-2020 20:00:00 | 16.90°C | Oeste-32.00 km/h - 61.00 km/h | 98.00% | 0.00 hPa
  • 26-09-2020 19:00:00 | 16.30°C | Oeste-40.00 km/h - 73.00 km/h | 99.00% | 0.00 hPa
  • 26-09-2020 18:00:00 | 16.90°C | Oeste-39.00 km/h - 77.00 km/h | 94.00% | 0.00 hPa
  • 26-09-2020 17:00:00 | 18.60°C | Oeste-39.00 km/h - 67.00 km/h | 77.00% | 0.00 hPa
  • 26-09-2020 16:00:00 | 17.60°C | Oeste-41.00 km/h - 69.00 km/h | 82.00% | 0.00 hPa
  • 26-09-2020 15:00:00 | 18.20°C | Oeste-41.00 km/h - 68.00 km/h | 75.00% | 0.00 hPa
  • 26-09-2020 14:00:00 | 17.10°C | Oeste-35.00 km/h - 67.00 km/h | 76.00% | 0.00 hPa
  • 26-09-2020 13:00:00 | 17.00°C | Oeste-41.00 km/h - 64.00 km/h | 67.00% | 0.00 hPa
  • 26-09-2020 12:00:00 | 16.40°C | Oeste-24.00 km/h - 41.00 km/h | 74.00% | 0.00 hPa
  • 26-09-2020 11:00:00 | 15.40°C | Sudoeste-25.00 km/h - 42.00 km/h | 80.00% | 0.00 hPa
  • 26-09-2020 10:00:00 | 15.00°C | Sudoeste-23.00 km/h - 52.00 km/h | 81.00% | 0.00 hPa
  • 26-09-2020 09:00:00 | 14.70°C | Oeste-27.00 km/h - 49.00 km/h | 81.00% | 0.00 hPa
  • 26-09-2020 08:00:00 | 14.50°C | Oeste-26.00 km/h - 48.00 km/h | 82.00% | 0.00 hPa
  • 26-09-2020 07:00:00 | 14.10°C | Oeste-30.00 km/h - 51.00 km/h | 87.00% | 0.00 hPa
  • 26-09-2020 06:00:00 | 13.70°C | Oeste-24.00 km/h - 46.00 km/h | 93.00% | 0.00 hPa
  • 26-09-2020 05:00:00 | 13.10°C | Oeste-23.00 km/h - 55.00 km/h | 96.00% | 0.00 hPa
  • 26-09-2020 04:00:00 | 13.50°C | Oeste-26.00 km/h - 48.00 km/h | 96.00% | 0.00 hPa
  • 26-09-2020 03:00:00 | 13.80°C | Oeste-20.00 km/h - 58.00 km/h | 92.00% | 0.00 hPa
  • 26-09-2020 02:00:00 | 15.50°C | Noroeste-18.00 km/h - 47.00 km/h | 77.00% | 0.00 hPa
    • Información sobre el estado de las mareas, altura de la marejada, temperatura del agua y otros datos de Gijón en Asturias.

      Surf Gijón